sensor_id;sensor_type;location;lat;lon;timestamp;P1;durP1;ratioP1;P2;durP2;ratioP2
19828;SDS011;10075;50.924;4.396;2022-12-11T00:02:13;24.17;;;14.33;;
19828;SDS011;10075;50.924;4.396;2022-12-11T00:04:40;24.10;;;13.80;;
19828;SDS011;10075;50.924;4.396;2022-12-11T00:07:07;29.47;;;16.10;;
19828;SDS011;10075;50.924;4.396;2022-12-11T00:09:34;32.27;;;16.33;;
19828;SDS011;10075;50.924;4.396;2022-12-11T00:12:01;30.23;;;16.93;;
19828;SDS011;10075;50.924;4.396;2022-12-11T00:14:29;34.07;;;18.30;;
19828;SDS011;10075;50.924;4.396;2022-12-11T00:16:57;33.03;;;18.63;;
19828;SDS011;10075;50.924;4.396;2022-12-11T00:19:25;32.63;;;19.07;;
19828;SDS011;10075;50.924;4.396;2022-12-11T00:21:52;31.57;;;16.70;;
19828;SDS011;10075;50.924;4.396;2022-12-11T00:24:19;30.90;;;17.40;;
19828;SDS011;10075;50.924;4.396;2022-12-11T00:26:46;33.10;;;18.70;;
19828;SDS011;10075;50.924;4.396;2022-12-11T00:29:13;37.23;;;19.43;;
19828;SDS011;10075;50.924;4.396;2022-12-11T00:31:40;34.47;;;19.33;;
19828;SDS011;10075;50.924;4.396;2022-12-11T00:34:08;31.57;;;17.30;;
19828;SDS011;10075;50.924;4.396;2022-12-11T00:36:38;36.93;;;18.83;;
19828;SDS011;10075;50.924;4.396;2022-12-11T00:39:05;31.60;;;16.33;;
19828;SDS011;10075;50.924;4.396;2022-12-11T00:41:32;31.97;;;17.70;;
19828;SDS011;10075;50.924;4.396;2022-12-11T00:43:59;28.27;;;15.93;;
19828;SDS011;10075;50.924;4.396;2022-12-11T00:46:27;29.73;;;16.33;;
19828;SDS011;10075;50.924;4.396;2022-12-11T00:48:54;34.80;;;18.10;;
19828;SDS011;10075;50.924;4.396;2022-12-11T00:51:21;29.97;;;16.43;;
19828;SDS011;10075;50.924;4.396;2022-12-11T00:53:49;33.13;;;17.27;;
19828;SDS011;10075;50.924;4.396;2022-12-11T00:56:17;36.27;;;18.90;;
19828;SDS011;10075;50.924;4.396;2022-12-11T00:58:46;35.03;;;17.97;;
19828;SDS011;10075;50.924;4.396;2022-12-11T01:01:14;32.63;;;17.90;;
19828;SDS011;10075;50.924;4.396;2022-12-11T01:03:42;34.93;;;18.93;;
19828;SDS011;10075;50.924;4.396;2022-12-11T01:06:11;35.33;;;18.50;;
19828;SDS011;10075;50.924;4.396;2022-12-11T01:08:39;31.23;;;17.43;;
19828;SDS011;10075;50.924;4.396;2022-12-11T01:11:08;36.80;;;16.80;;
19828;SDS011;10075;50.924;4.396;2022-12-11T01:13:35;37.87;;;19.03;;
19828;SDS011;10075;50.924;4.396;2022-12-11T01:16:06;29.50;;;16.93;;
19828;SDS011;10075;50.924;4.396;2022-12-11T01:18:34;41.20;;;19.90;;
19828;SDS011;10075;50.924;4.396;2022-12-11T01:21:05;31.00;;;17.17;;
19828;SDS011;10075;50.924;4.396;2022-12-11T01:23:34;28.30;;;15.90;;
19828;SDS011;10075;50.924;4.396;2022-12-11T01:26:05;27.67;;;16.07;;
19828;SDS011;10075;50.924;4.396;2022-12-11T01:28:36;25.97;;;15.27;;
19828;SDS011;10075;50.924;4.396;2022-12-11T01:31:06;33.23;;;16.57;;
19828;SDS011;10075;50.924;4.396;2022-12-11T01:33:34;28.03;;;14.97;;
19828;SDS011;10075;50.924;4.396;2022-12-11T01:36:05;29.37;;;15.90;;
19828;SDS011;10075;50.924;4.396;2022-12-11T01:38:33;28.37;;;15.50;;
19828;SDS011;10075;50.924;4.396;2022-12-11T01:41:00;26.47;;;14.83;;
19828;SDS011;10075;50.924;4.396;2022-12-11T01:43:29;27.13;;;15.33;;
19828;SDS011;10075;50.924;4.396;2022-12-11T01:45:56;28.03;;;16.13;;
19828;SDS011;10075;50.924;4.396;2022-12-11T01:48:24;28.57;;;15.70;;
19828;SDS011;10075;50.924;4.396;2022-12-11T01:50:55;27.93;;;16.13;;
19828;SDS011;10075;50.924;4.396;2022-12-11T01:53:25;30.13;;;16.57;;
19828;SDS011;10075;50.924;4.396;2022-12-11T01:55:56;31.37;;;17.43;;
19828;SDS011;10075;50.924;4.396;2022-12-11T01:58:25;30.83;;;17.07;;
19828;SDS011;10075;50.924;4.396;2022-12-11T02:00:56;32.20;;;17.50;;
19828;SDS011;10075;50.924;4.396;2022-12-11T02:03:25;35.27;;;18.43;;
19828;SDS011;10075;50.924;4.396;2022-12-11T02:05:52;33.90;;;17.33;;
19828;SDS011;10075;50.924;4.396;2022-12-11T02:08:19;33.00;;;18.57;;
19828;SDS011;10075;50.924;4.396;2022-12-11T02:10:48;37.37;;;17.87;;
19828;SDS011;10075;50.924;4.396;2022-12-11T02:13:27;29.40;;;17.57;;
19828;SDS011;10075;50.924;4.396;2022-12-11T02:16:03;35.40;;;18.20;;
19828;SDS011;10075;50.924;4.396;2022-12-11T02:18:38;41.60;;;20.60;;
19828;SDS011;10075;50.924;4.396;2022-12-11T02:21:14;34.90;;;18.30;;
19828;SDS011;10075;50.924;4.396;2022-12-11T02:23:59;31.90;;;18.10;;
19828;SDS011;10075;50.924;4.396;2022-12-11T02:26:56;29.57;;;16.57;;
19828;SDS011;10075;50.924;4.396;2022-12-11T02:29:44;30.07;;;16.50;;
19828;SDS011;10075;50.924;4.396;2022-12-11T02:32:16;30.07;;;17.07;;
19828;SDS011;10075;50.924;4.396;2022-12-11T02:34:50;35.23;;;17.93;;
19828;SDS011;10075;50.924;4.396;2022-12-11T02:37:22;35.57;;;17.70;;
19828;SDS011;10075;50.924;4.396;2022-12-11T02:39:53;33.03;;;17.70;;
19828;SDS011;10075;50.924;4.396;2022-12-11T02:42:21;32.10;;;18.20;;
19828;SDS011;10075;50.924;4.396;2022-12-11T02:44:54;35.37;;;18.00;;
19828;SDS011;10075;50.924;4.396;2022-12-11T02:47:23;33.33;;;18.43;;
19828;SDS011;10075;50.924;4.396;2022-12-11T02:49:53;33.17;;;18.17;;
19828;SDS011;10075;50.924;4.396;2022-12-11T02:52:23;30.73;;;18.07;;
19828;SDS011;10075;50.924;4.396;2022-12-11T02:54:52;31.93;;;18.17;;
19828;SDS011;10075;50.924;4.396;2022-12-11T02:57:23;33.10;;;17.73;;
19828;SDS011;10075;50.924;4.396;2022-12-11T02:59:55;36.77;;;18.63;;
19828;SDS011;10075;50.924;4.396;2022-12-11T03:02:22;35.50;;;19.27;;
19828;SDS011;10075;50.924;4.396;2022-12-11T03:04:50;36.03;;;17.80;;
19828;SDS011;10075;50.924;4.396;2022-12-11T03:07:18;36.73;;;17.43;;
19828;SDS011;10075;50.924;4.396;2022-12-11T03:09:50;28.27;;;16.13;;
19828;SDS011;10075;50.924;4.396;2022-12-11T03:12:18;29.53;;;16.47;;
19828;SDS011;10075;50.924;4.396;2022-12-11T03:14:49;34.83;;;17.50;;
19828;SDS011;10075;50.924;4.396;2022-12-11T03:17:18;31.57;;;17.77;;
19828;SDS011;10075;50.924;4.396;2022-12-11T03:19:49;32.33;;;18.13;;
19828;SDS011;10075;50.924;4.396;2022-12-11T03:22:25;35.53;;;19.40;;
19828;SDS011;10075;50.924;4.396;2022-12-11T03:24:59;32.50;;;18.77;;
19828;SDS011;10075;50.924;4.396;2022-12-11T03:27:31;36.10;;;19.37;;
19828;SDS011;10075;50.924;4.396;2022-12-11T03:30:03;33.60;;;18.80;;
19828;SDS011;10075;50.924;4.396;2022-12-11T03:32:35;35.63;;;20.03;;
19828;SDS011;10075;50.924;4.396;2022-12-11T03:35:08;32.70;;;18.60;;
19828;SDS011;10075;50.924;4.396;2022-12-11T03:37:43;35.73;;;20.20;;
19828;SDS011;10075;50.924;4.396;2022-12-11T03:40:12;37.23;;;20.10;;
19828;SDS011;10075;50.924;4.396;2022-12-11T03:42:41;37.87;;;20.70;;
19828;SDS011;10075;50.924;4.396;2022-12-11T03:45:10;44.43;;;21.40;;
19828;SDS011;10075;50.924;4.396;2022-12-11T03:47:40;35.60;;;19.57;;
19828;SDS011;10075;50.924;4.396;2022-12-11T03:50:10;36.67;;;21.37;;
19828;SDS011;10075;50.924;4.396;2022-12-11T03:52:40;40.33;;;21.20;;
19828;SDS011;10075;50.924;4.396;2022-12-11T03:55:08;38.93;;;21.17;;
19828;SDS011;10075;50.924;4.396;2022-12-11T03:57:37;38.43;;;20.50;;
19828;SDS011;10075;50.924;4.396;2022-12-11T04:00:05;37.10;;;21.07;;
19828;SDS011;10075;50.924;4.396;2022-12-11T04:02:33;41.73;;;20.63;;
19828;SDS011;10075;50.924;4.396;2022-12-11T04:05:02;38.93;;;21.17;;
19828;SDS011;10075;50.924;4.396;2022-12-11T04:07:29;40.27;;;20.40;;
19828;SDS011;10075;50.924;4.396;2022-12-11T04:09:56;38.13;;;21.07;;
19828;SDS011;10075;50.924;4.396;2022-12-11T04:12:23;39.90;;;20.10;;
19828;SDS011;10075;50.924;4.396;2022-12-11T04:14:51;35.93;;;20.43;;
19828;SDS011;10075;50.924;4.396;2022-12-11T04:17:26;37.63;;;20.90;;
19828;SDS011;10075;50.924;4.396;2022-12-11T04:20:12;39.80;;;20.00;;
19828;SDS011;10075;50.924;4.396;2022-12-11T04:22:56;37.67;;;20.27;;
19828;SDS011;10075;50.924;4.396;2022-12-11T04:25:40;37.73;;;19.50;;
19828;SDS011;10075;50.924;4.396;2022-12-11T04:28:08;39.60;;;20.33;;
19828;SDS011;10075;50.924;4.396;2022-12-11T04:30:35;37.00;;;19.63;;
19828;SDS011;10075;50.924;4.396;2022-12-11T04:33:02;36.33;;;20.03;;
19828;SDS011;10075;50.924;4.396;2022-12-11T04:35:31;37.83;;;20.63;;
19828;SDS011;10075;50.924;4.396;2022-12-11T04:37:58;36.47;;;20.67;;
19828;SDS011;10075;50.924;4.396;2022-12-11T04:40:25;37.23;;;18.93;;
19828;SDS011;10075;50.924;4.396;2022-12-11T04:42:52;41.23;;;21.63;;
19828;SDS011;10075;50.924;4.396;2022-12-11T04:45:19;42.67;;;22.03;;
19828;SDS011;10075;50.924;4.396;2022-12-11T04:47:46;39.00;;;21.33;;
19828;SDS011;10075;50.924;4.396;2022-12-11T04:50:14;46.47;;;21.70;;
19828;SDS011;10075;50.924;4.396;2022-12-11T04:52:43;44.07;;;22.23;;
19828;SDS011;10075;50.924;4.396;2022-12-11T04:55:10;48.77;;;23.83;;
19828;SDS011;10075;50.924;4.396;2022-12-11T04:57:37;43.00;;;22.83;;
19828;SDS011;10075;50.924;4.396;2022-12-11T05:00:05;43.87;;;22.73;;
19828;SDS011;10075;50.924;4.396;2022-12-11T05:02:35;45.07;;;23.50;;
19828;SDS011;10075;50.924;4.396;2022-12-11T05:05:03;49.47;;;23.90;;
19828;SDS011;10075;50.924;4.396;2022-12-11T05:07:31;42.43;;;22.33;;
19828;SDS011;10075;50.924;4.396;2022-12-11T05:09:59;44.17;;;22.30;;
19828;SDS011;10075;50.924;4.396;2022-12-11T05:12:26;41.87;;;22.40;;
19828;SDS011;10075;50.924;4.396;2022-12-11T05:14:54;43.73;;;23.03;;
19828;SDS011;10075;50.924;4.396;2022-12-11T05:17:21;43.73;;;22.90;;
19828;SDS011;10075;50.924;4.396;2022-12-11T05:19:48;43.90;;;23.53;;
19828;SDS011;10075;50.924;4.396;2022-12-11T05:22:16;43.83;;;22.33;;
19828;SDS011;10075;50.924;4.396;2022-12-11T05:24:44;44.77;;;23.53;;
19828;SDS011;10075;50.924;4.396;2022-12-11T05:27:12;42.57;;;21.23;;
19828;SDS011;10075;50.924;4.396;2022-12-11T05:29:39;42.20;;;21.50;;
19828;SDS011;10075;50.924;4.396;2022-12-11T05:32:07;48.03;;;22.40;;
19828;SDS011;10075;50.924;4.396;2022-12-11T05:34:34;44.23;;;23.07;;
19828;SDS011;10075;50.924;4.396;2022-12-11T05:37:01;44.83;;;21.97;;
19828;SDS011;10075;50.924;4.396;2022-12-11T05:39:28;39.50;;;21.73;;
19828;SDS011;10075;50.924;4.396;2022-12-11T05:41:55;44.13;;;21.60;;
19828;SDS011;10075;50.924;4.396;2022-12-11T05:44:23;39.03;;;22.37;;
19828;SDS011;10075;50.924;4.396;2022-12-11T05:46:51;44.83;;;22.27;;
19828;SDS011;10075;50.924;4.396;2022-12-11T05:49:18;40.43;;;21.60;;
19828;SDS011;10075;50.924;4.396;2022-12-11T05:51:46;43.63;;;21.30;;
19828;SDS011;10075;50.924;4.396;2022-12-11T05:54:13;44.07;;;22.27;;
19828;SDS011;10075;50.924;4.396;2022-12-11T05:56:40;40.77;;;21.87;;
19828;SDS011;10075;50.924;4.396;2022-12-11T05:59:07;43.10;;;21.30;;
19828;SDS011;10075;50.924;4.396;2022-12-11T06:01:36;42.90;;;21.30;;
19828;SDS011;10075;50.924;4.396;2022-12-11T06:04:05;39.83;;;21.63;;
19828;SDS011;10075;50.924;4.396;2022-12-11T06:06:33;40.87;;;21.80;;
19828;SDS011;10075;50.924;4.396;2022-12-11T06:09:00;46.33;;;23.30;;
19828;SDS011;10075;50.924;4.396;2022-12-11T06:11:29;40.77;;;21.57;;
19828;SDS011;10075;50.924;4.396;2022-12-11T06:13:57;40.60;;;22.27;;
19828;SDS011;10075;50.924;4.396;2022-12-11T06:16:24;45.97;;;22.50;;
19828;SDS011;10075;50.924;4.396;2022-12-11T06:18:53;40.70;;;22.13;;
19828;SDS011;10075;50.924;4.396;2022-12-11T06:21:21;43.17;;;22.57;;
19828;SDS011;10075;50.924;4.396;2022-12-11T06:23:50;43.33;;;22.60;;
19828;SDS011;10075;50.924;4.396;2022-12-11T06:26:19;39.03;;;22.67;;
19828;SDS011;10075;50.924;4.396;2022-12-11T06:28:47;43.60;;;23.50;;
19828;SDS011;10075;50.924;4.396;2022-12-11T06:31:15;47.10;;;23.50;;
19828;SDS011;10075;50.924;4.396;2022-12-11T06:33:43;46.47;;;23.87;;
19828;SDS011;10075;50.924;4.396;2022-12-11T06:36:12;42.40;;;22.97;;
19828;SDS011;10075;50.924;4.396;2022-12-11T06:38:42;40.20;;;22.90;;
19828;SDS011;10075;50.924;4.396;2022-12-11T06:41:09;42.60;;;22.27;;
19828;SDS011;10075;50.924;4.396;2022-12-11T06:43:37;42.90;;;23.17;;
19828;SDS011;10075;50.924;4.396;2022-12-11T06:46:05;37.77;;;21.30;;
19828;SDS011;10075;50.924;4.396;2022-12-11T06:48:33;43.40;;;22.67;;
19828;SDS011;10075;50.924;4.396;2022-12-11T06:51:03;47.80;;;23.63;;
19828;SDS011;10075;50.924;4.396;2022-12-11T06:53:33;43.70;;;22.43;;
19828;SDS011;10075;50.924;4.396;2022-12-11T06:56:03;41.63;;;22.87;;
19828;SDS011;10075;50.924;4.396;2022-12-11T06:58:32;45.23;;;23.30;;
19828;SDS011;10075;50.924;4.396;2022-12-11T07:01:00;42.90;;;24.13;;
19828;SDS011;10075;50.924;4.396;2022-12-11T07:03:27;47.43;;;22.93;;
19828;SDS011;10075;50.924;4.396;2022-12-11T07:05:58;43.33;;;23.57;;
19828;SDS011;10075;50.924;4.396;2022-12-11T07:08:26;49.17;;;24.37;;
19828;SDS011;10075;50.924;4.396;2022-12-11T07:11:00;49.77;;;24.33;;
19828;SDS011;10075;50.924;4.396;2022-12-11T07:13:28;46.57;;;23.33;;
19828;SDS011;10075;50.924;4.396;2022-12-11T07:15:56;48.03;;;22.63;;
19828;SDS011;10075;50.924;4.396;2022-12-11T07:18:24;42.50;;;22.40;;
19828;SDS011;10075;50.924;4.396;2022-12-11T07:20:51;47.37;;;22.77;;
19828;SDS011;10075;50.924;4.396;2022-12-11T07:23:18;49.80;;;23.60;;
19828;SDS011;10075;50.924;4.396;2022-12-11T07:25:45;43.70;;;23.30;;
19828;SDS011;10075;50.924;4.396;2022-12-11T07:28:14;48.93;;;22.97;;
19828;SDS011;10075;50.924;4.396;2022-12-11T07:30:41;46.57;;;23.33;;
19828;SDS011;10075;50.924;4.396;2022-12-11T07:33:08;43.20;;;22.17;;
19828;SDS011;10075;50.924;4.396;2022-12-11T07:35:35;43.87;;;22.07;;
19828;SDS011;10075;50.924;4.396;2022-12-11T07:38:02;41.77;;;21.93;;
19828;SDS011;10075;50.924;4.396;2022-12-11T07:40:29;45.17;;;21.83;;
19828;SDS011;10075;50.924;4.396;2022-12-11T07:42:56;48.27;;;23.33;;
19828;SDS011;10075;50.924;4.396;2022-12-11T07:45:25;41.93;;;21.77;;
19828;SDS011;10075;50.924;4.396;2022-12-11T07:47:52;41.50;;;21.70;;
19828;SDS011;10075;50.924;4.396;2022-12-11T07:50:19;40.70;;;22.57;;
19828;SDS011;10075;50.924;4.396;2022-12-11T07:52:46;45.83;;;23.57;;
19828;SDS011;10075;50.924;4.396;2022-12-11T07:55:13;46.47;;;23.87;;
19828;SDS011;10075;50.924;4.396;2022-12-11T07:57:40;45.03;;;23.00;;
19828;SDS011;10075;50.924;4.396;2022-12-11T08:00:07;47.30;;;23.90;;
19828;SDS011;10075;50.924;4.396;2022-12-11T08:02:37;47.93;;;23.90;;
19828;SDS011;10075;50.924;4.396;2022-12-11T08:05:04;45.70;;;21.93;;
19828;SDS011;10075;50.924;4.396;2022-12-11T08:07:33;42.90;;;22.33;;
19828;SDS011;10075;50.924;4.396;2022-12-11T08:10:00;48.93;;;22.07;;
19828;SDS011;10075;50.924;4.396;2022-12-11T08:12:27;44.13;;;20.73;;
19828;SDS011;10075;50.924;4.396;2022-12-11T08:14:54;40.83;;;21.93;;
19828;SDS011;10075;50.924;4.396;2022-12-11T08:17:21;42.63;;;20.50;;
19828;SDS011;10075;50.924;4.396;2022-12-11T08:19:50;42.73;;;22.53;;
19828;SDS011;10075;50.924;4.396;2022-12-11T08:22:17;42.77;;;20.73;;
19828;SDS011;10075;50.924;4.396;2022-12-11T08:24:45;41.60;;;21.23;;
19828;SDS011;10075;50.924;4.396;2022-12-11T08:27:12;47.93;;;23.13;;
19828;SDS011;10075;50.924;4.396;2022-12-11T08:29:39;43.57;;;23.00;;
19828;SDS011;10075;50.924;4.396;2022-12-11T08:32:06;40.93;;;22.60;;
19828;SDS011;10075;50.924;4.396;2022-12-11T08:34:33;41.60;;;21.67;;
19828;SDS011;10075;50.924;4.396;2022-12-11T08:37:02;41.97;;;22.13;;
19828;SDS011;10075;50.924;4.396;2022-12-11T08:39:29;40.97;;;21.80;;
19828;SDS011;10075;50.924;4.396;2022-12-11T08:41:56;46.50;;;23.03;;
19828;SDS011;10075;50.924;4.396;2022-12-11T08:44:23;40.50;;;20.33;;
19828;SDS011;10075;50.924;4.396;2022-12-11T08:46:51;42.53;;;21.97;;
19828;SDS011;10075;50.924;4.396;2022-12-11T08:49:18;44.50;;;22.93;;
19828;SDS011;10075;50.924;4.396;2022-12-11T08:51:45;44.13;;;22.13;;
19828;SDS011;10075;50.924;4.396;2022-12-11T08:54:13;46.43;;;21.77;;
19828;SDS011;10075;50.924;4.396;2022-12-11T08:56:40;43.53;;;22.07;;
19828;SDS011;10075;50.924;4.396;2022-12-11T08:59:07;43.90;;;22.33;;
19828;SDS011;10075;50.924;4.396;2022-12-11T09:01:34;46.10;;;22.47;;
19828;SDS011;10075;50.924;4.396;2022-12-11T09:04:02;43.83;;;22.20;;
19828;SDS011;10075;50.924;4.396;2022-12-11T09:06:31;39.97;;;21.07;;
19828;SDS011;10075;50.924;4.396;2022-12-11T09:08:59;40.43;;;20.10;;
19828;SDS011;10075;50.924;4.396;2022-12-11T09:11:28;40.57;;;20.33;;
19828;SDS011;10075;50.924;4.396;2022-12-11T09:13:57;34.50;;;19.40;;
19828;SDS011;10075;50.924;4.396;2022-12-11T09:16:25;38.20;;;20.97;;
19828;SDS011;10075;50.924;4.396;2022-12-11T09:18:54;36.77;;;20.10;;
19828;SDS011;10075;50.924;4.396;2022-12-11T09:21:24;38.30;;;19.30;;
19828;SDS011;10075;50.924;4.396;2022-12-11T09:23:53;32.43;;;18.17;;
19828;SDS011;10075;50.924;4.396;2022-12-11T09:26:22;35.33;;;18.60;;
19828;SDS011;10075;50.924;4.396;2022-12-11T09:28:51;29.80;;;17.60;;
19828;SDS011;10075;50.924;4.396;2022-12-11T09:31:19;33.03;;;17.27;;
19828;SDS011;10075;50.924;4.396;2022-12-11T09:33:48;31.97;;;17.73;;
19828;SDS011;10075;50.924;4.396;2022-12-11T09:36:17;28.50;;;16.40;;
19828;SDS011;10075;50.924;4.396;2022-12-11T09:38:44;32.57;;;18.20;;
19828;SDS011;10075;50.924;4.396;2022-12-11T09:41:22;37.70;;;20.80;;
19828;SDS011;10075;50.924;4.396;2022-12-11T09:44:00;32.20;;;18.67;;
19828;SDS011;10075;50.924;4.396;2022-12-11T09:46:40;37.47;;;20.40;;
19828;SDS011;10075;50.924;4.396;2022-12-11T09:49:11;30.30;;;17.33;;
19828;SDS011;10075;50.924;4.396;2022-12-11T09:51:48;31.90;;;18.00;;
19828;SDS011;10075;50.924;4.396;2022-12-11T09:54:22;33.80;;;17.23;;
19828;SDS011;10075;50.924;4.396;2022-12-11T09:56:50;32.13;;;17.93;;
19828;SDS011;10075;50.924;4.396;2022-12-11T09:59:26;32.50;;;18.60;;
19828;SDS011;10075;50.924;4.396;2022-12-11T10:02:08;34.73;;;19.47;;
19828;SDS011;10075;50.924;4.396;2022-12-11T10:04:49;37.30;;;19.27;;
19828;SDS011;10075;50.924;4.396;2022-12-11T10:07:29;31.53;;;17.80;;
19828;SDS011;10075;50.924;4.396;2022-12-11T10:10:04;41.07;;;20.03;;
19828;SDS011;10075;50.924;4.396;2022-12-11T10:12:41;54.63;;;26.93;;
19828;SDS011;10075;50.924;4.396;2022-12-11T10:15:22;38.23;;;20.23;;
19828;SDS011;10075;50.924;4.396;2022-12-11T10:18:01;38.90;;;20.80;;
19828;SDS011;10075;50.924;4.396;2022-12-11T10:20:32;33.90;;;18.97;;
19828;SDS011;10075;50.924;4.396;2022-12-11T10:23:04;34.23;;;18.33;;
19828;SDS011;10075;50.924;4.396;2022-12-11T10:25:34;30.93;;;16.37;;
19828;SDS011;10075;50.924;4.396;2022-12-11T10:28:08;33.17;;;17.80;;
19828;SDS011;10075;50.924;4.396;2022-12-11T10:30:39;30.50;;;16.37;;
19828;SDS011;10075;50.924;4.396;2022-12-11T10:33:13;29.90;;;16.03;;
19828;SDS011;10075;50.924;4.396;2022-12-11T10:35:47;33.47;;;15.90;;
19828;SDS011;10075;50.924;4.396;2022-12-11T10:38:19;31.23;;;16.93;;
19828;SDS011;10075;50.924;4.396;2022-12-11T10:40:49;38.47;;;19.40;;
19828;SDS011;10075;50.924;4.396;2022-12-11T10:43:18;42.67;;;22.50;;
19828;SDS011;10075;50.924;4.396;2022-12-11T10:45:50;31.73;;;18.33;;
19828;SDS011;10075;50.924;4.396;2022-12-11T10:48:18;32.50;;;18.60;;
19828;SDS011;10075;50.924;4.396;2022-12-11T10:50:53;37.67;;;21.20;;
19828;SDS011;10075;50.924;4.396;2022-12-11T10:53:23;34.77;;;17.87;;
19828;SDS011;10075;50.924;4.396;2022-12-11T10:55:51;38.73;;;18.87;;
19828;SDS011;10075;50.924;4.396;2022-12-11T10:58:20;37.73;;;19.30;;
19828;SDS011;10075;50.924;4.396;2022-12-11T11:00:58;39.83;;;20.33;;
19828;SDS011;10075;50.924;4.396;2022-12-11T11:03:34;41.33;;;20.10;;
19828;SDS011;10075;50.924;4.396;2022-12-11T11:06:13;37.80;;;19.37;;
19828;SDS011;10075;50.924;4.396;2022-12-11T11:08:43;36.97;;;19.03;;
19828;SDS011;10075;50.924;4.396;2022-12-11T11:16:48;36.57;;;17.83;;
19828;SDS011;10075;50.924;4.396;2022-12-11T11:19:17;33.00;;;17.87;;
19828;SDS011;10075;50.924;4.396;2022-12-11T11:21:48;48.60;;;24.63;;
19828;SDS011;10075;50.924;4.396;2022-12-11T11:24:22;45.80;;;24.67;;
19828;SDS011;10075;50.924;4.396;2022-12-11T11:26:54;37.70;;;20.10;;
19828;SDS011;10075;50.924;4.396;2022-12-11T11:29:24;38.27;;;19.10;;
19828;SDS011;10075;50.924;4.396;2022-12-11T11:31:56;42.77;;;20.47;;
19828;SDS011;10075;50.924;4.396;2022-12-11T11:34:29;39.50;;;19.63;;
19828;SDS011;10075;50.924;4.396;2022-12-11T11:36:57;36.23;;;18.67;;
19828;SDS011;10075;50.924;4.396;2022-12-11T11:39:30;34.87;;;17.67;;
19828;SDS011;10075;50.924;4.396;2022-12-11T11:42:07;34.83;;;17.37;;
19828;SDS011;10075;50.924;4.396;2022-12-11T11:44:44;30.60;;;15.77;;
19828;SDS011;10075;50.924;4.396;2022-12-11T11:47:25;30.43;;;14.80;;
19828;SDS011;10075;50.924;4.396;2022-12-11T11:49:57;32.77;;;15.60;;
19828;SDS011;10075;50.924;4.396;2022-12-11T11:52:29;31.83;;;16.67;;
19828;SDS011;10075;50.924;4.396;2022-12-11T11:55:05;29.93;;;13.90;;
19828;SDS011;10075;50.924;4.396;2022-12-11T11:57:41;25.83;;;12.67;;
19828;SDS011;10075;50.924;4.396;2022-12-11T12:00:19;24.33;;;12.67;;
19828;SDS011;10075;50.924;4.396;2022-12-11T12:02:50;25.50;;;13.30;;
19828;SDS011;10075;50.924;4.396;2022-12-11T12:05:24;25.87;;;13.20;;
19828;SDS011;10075;50.924;4.396;2022-12-11T12:07:59;27.60;;;12.87;;
19828;SDS011;10075;50.924;4.396;2022-12-11T12:10:35;22.90;;;12.30;;
19828;SDS011;10075;50.924;4.396;2022-12-11T12:13:09;28.33;;;13.27;;
19828;SDS011;10075;50.924;4.396;2022-12-11T12:15:42;25.30;;;13.07;;
19828;SDS011;10075;50.924;4.396;2022-12-11T12:18:19;23.97;;;12.37;;
19828;SDS011;10075;50.924;4.396;2022-12-11T12:20:54;25.00;;;12.90;;
19828;SDS011;10075;50.924;4.396;2022-12-11T12:23:31;28.23;;;13.10;;
19828;SDS011;10075;50.924;4.396;2022-12-11T12:26:08;24.50;;;12.33;;
19828;SDS011;10075;50.924;4.396;2022-12-11T12:28:42;28.47;;;14.60;;
19828;SDS011;10075;50.924;4.396;2022-12-11T12:31:23;26.60;;;13.33;;
19828;SDS011;10075;50.924;4.396;2022-12-11T12:34:03;27.30;;;13.07;;
19828;SDS011;10075;50.924;4.396;2022-12-11T12:36:37;29.77;;;14.13;;
19828;SDS011;10075;50.924;4.396;2022-12-11T12:39:13;28.00;;;12.80;;
19828;SDS011;10075;50.924;4.396;2022-12-11T12:41:48;30.60;;;14.23;;
19828;SDS011;10075;50.924;4.396;2022-12-11T12:44:21;24.30;;;12.97;;
19828;SDS011;10075;50.924;4.396;2022-12-11T12:46:52;26.23;;;13.77;;
19828;SDS011;10075;50.924;4.396;2022-12-11T12:49:29;26.70;;;13.90;;
19828;SDS011;10075;50.924;4.396;2022-12-11T12:52:00;23.13;;;12.83;;
19828;SDS011;10075;50.924;4.396;2022-12-11T12:54:28;23.70;;;11.37;;
19828;SDS011;10075;50.924;4.396;2022-12-11T12:56:57;27.43;;;12.47;;
19828;SDS011;10075;50.924;4.396;2022-12-11T12:59:27;25.97;;;12.13;;
19828;SDS011;10075;50.924;4.396;2022-12-11T13:01:55;25.83;;;12.53;;
19828;SDS011;10075;50.924;4.396;2022-12-11T13:07:21;28.83;;;14.23;;
19828;SDS011;10075;50.924;4.396;2022-12-11T13:09:57;24.43;;;13.37;;
19828;SDS011;10075;50.924;4.396;2022-12-11T13:15:28;29.10;;;14.03;;
19828;SDS011;10075;50.924;4.396;2022-12-11T13:18:27;29.20;;;13.67;;
19828;SDS011;10075;50.924;4.396;2022-12-11T13:20:58;31.37;;;14.57;;
19828;SDS011;10075;50.924;4.396;2022-12-11T13:23:27;29.30;;;14.23;;
19828;SDS011;10075;50.924;4.396;2022-12-11T13:25:56;35.20;;;15.53;;
19828;SDS011;10075;50.924;4.396;2022-12-11T13:28:30;34.50;;;16.07;;
19828;SDS011;10075;50.924;4.396;2022-12-11T13:31:27;33.70;;;15.30;;
19828;SDS011;10075;50.924;4.396;2022-12-11T13:34:05;35.33;;;17.67;;
19828;SDS011;10075;50.924;4.396;2022-12-11T13:36:40;32.60;;;16.33;;
19828;SDS011;10075;50.924;4.396;2022-12-11T13:39:15;41.00;;;17.37;;
19828;SDS011;10075;50.924;4.396;2022-12-11T13:41:44;37.97;;;18.80;;
19828;SDS011;10075;50.924;4.396;2022-12-11T13:44:15;34.70;;;16.57;;
19828;SDS011;10075;50.924;4.396;2022-12-11T13:46:47;36.10;;;17.77;;
19828;SDS011;10075;50.924;4.396;2022-12-11T13:49:21;34.53;;;17.43;;
19828;SDS011;10075;50.924;4.396;2022-12-11T13:51:52;35.43;;;17.47;;
19828;SDS011;10075;50.924;4.396;2022-12-11T13:54:21;31.73;;;17.37;;
19828;SDS011;10075;50.924;4.396;2022-12-11T13:56:52;39.67;;;18.10;;
19828;SDS011;10075;50.924;4.396;2022-12-11T13:59:24;39.50;;;17.90;;
19828;SDS011;10075;50.924;4.396;2022-12-11T14:01:54;40.80;;;21.67;;
19828;SDS011;10075;50.924;4.396;2022-12-11T14:04:24;40.37;;;19.77;;
19828;SDS011;10075;50.924;4.396;2022-12-11T14:06:54;39.07;;;19.33;;
19828;SDS011;10075;50.924;4.396;2022-12-11T14:09:23;37.17;;;17.83;;
19828;SDS011;10075;50.924;4.396;2022-12-11T14:11:53;42.00;;;19.63;;
19828;SDS011;10075;50.924;4.396;2022-12-11T14:14:24;41.47;;;19.43;;
19828;SDS011;10075;50.924;4.396;2022-12-11T14:16:58;39.97;;;19.50;;
19828;SDS011;10075;50.924;4.396;2022-12-11T14:19:26;43.47;;;20.00;;
19828;SDS011;10075;50.924;4.396;2022-12-11T14:21:58;44.80;;;19.67;;
19828;SDS011;10075;50.924;4.396;2022-12-11T14:24:27;41.53;;;18.53;;
19828;SDS011;10075;50.924;4.396;2022-12-11T14:26:55;47.37;;;21.87;;
19828;SDS011;10075;50.924;4.396;2022-12-11T14:29:24;46.53;;;20.63;;
19828;SDS011;10075;50.924;4.396;2022-12-11T14:31:53;47.97;;;21.90;;
19828;SDS011;10075;50.924;4.396;2022-12-11T14:34:23;47.00;;;22.40;;
19828;SDS011;10075;50.924;4.396;2022-12-11T14:36:51;47.33;;;22.47;;
19828;SDS011;10075;50.924;4.396;2022-12-11T14:39:22;43.30;;;20.77;;
19828;SDS011;10075;50.924;4.396;2022-12-11T14:41:52;45.50;;;22.03;;
19828;SDS011;10075;50.924;4.396;2022-12-11T14:44:24;49.20;;;22.50;;
19828;SDS011;10075;50.924;4.396;2022-12-11T14:46:56;47.27;;;21.90;;
19828;SDS011;10075;50.924;4.396;2022-12-11T14:49:27;52.17;;;23.80;;
19828;SDS011;10075;50.924;4.396;2022-12-11T14:52:02;53.97;;;23.50;;